Time;durP1;ratioP1;P1;durP2;ratioP2;P2;SDS_P1;SDS_P2;PMS_P1;PMS_P2;Temp;Humidity;BMP_temperature;BMP_pressure;BME280_temperature;BME280_humidity;BME280_pressure;Samples;Min_cycle;Max_cycle;Signal;HPM_P1;HPM_P2
2022/10/24 00:01:10;;;;;;;;;;;;;;;19.31;61.64;100188.50;4326819;33;19994;-85
2022/10/24 00:03:37;;;;;;;;;;;;;;;19.43;61.23;100172.56;4333370;33;19987;-85
2022/10/24 00:06:05;;;;;;;;;;;;;;;19.34;61.55;100167.44;4327610;33;20043;-86
2022/10/24 00:08:32;;;;;;;;;;;;;;;19.32;61.60;100182.34;4326573;33;19987;-85
2022/10/24 00:10:59;;;;;;;;;;;;;;;19.33;61.42;100170.09;4325039;33;20302;-87
2022/10/24 00:13:26;;;;;;;;;;;;;;;19.26;61.63;100179.81;4326876;33;20315;-86
2022/10/24 00:15:53;;;;;;;;;;;;;;;19.35;61.43;100174.44;4329463;33;19992;-85
2022/10/24 00:18:20;;;;;;;;;;;;;;;19.27;61.70;100171.03;4332211;33;20003;-86
2022/10/24 00:20:46;;;;;;;;;;;;;;;19.22;61.91;100172.87;4326697;33;20368;-86
2022/10/24 00:23:13;;;;;;;;;;;;;;;19.16;62.02;100178.19;4325137;33;19995;-85
2022/10/24 00:25:40;;;;;;;;;;;;;;;19.12;62.26;100173.88;4328736;33;20115;-85
2022/10/24 00:28:07;;;;;;;;;;;;;;;19.12;62.29;100181.75;4332260;33;20002;-85
2022/10/24 00:30:34;;;;;;;;;;;;;;;19.25;61.85;100172.81;4326561;33;19968;-85
2022/10/24 00:33:01;;;;;;;;;;;;;;;19.18;62.09;100171.19;4327251;33;19995;-86
2022/10/24 00:35:27;;;;;;;;;;;;;;;19.19;62.04;100162.41;4334261;33;20010;-85
2022/10/24 00:37:54;;;;;;;;;;;;;;;19.28;61.73;100162.28;4330184;33;20743;-85
2022/10/24 00:40:21;;;;;;;;;;;;;;;19.25;61.81;100157.94;3998898;33;10004664;-85
2022/10/24 00:42:48;;;;;;;;;;;;;;;19.05;62.43;100158.22;4303835;33;20007;-84
2022/10/24 00:45:34;;;;;;;;;;;;;;;19.12;62.42;100161.63;4295989;33;20007;-83
2022/10/24 00:48:09;;;;;;;;;;;;;;;19.17;62.06;100158.94;4297038;33;19988;-84
2022/10/24 00:50:35;;;;;;;;;;;;;;;19.05;62.24;100155.59;4303482;33;19984;-85
2022/10/24 00:53:02;;;;;;;;;;;;;;;18.98;62.61;100148.69;4301112;33;20063;-85
2022/10/24 00:55:29;;;;;;;;;;;;;;;19.00;62.53;100149.53;4309495;33;20382;-85
2022/10/24 00:58:00;;;;;;;;;;;;;;;19.20;61.84;100143.16;4313869;33;20011;-85
2022/10/24 01:00:28;;;;;;;;;;;;;;;19.07;62.27;100152.09;4316526;33;20011;-84
2022/10/24 01:02:55;;;;;;;;;;;;;;;18.92;62.78;100148.78;4310741;33;20002;-85
2022/10/24 01:05:23;;;;;;;;;;;;;;;19.02;62.33;100145.16;4311762;33;19995;-85
2022/10/24 01:08:05;;;;;;;;;;;;;;;19.09;62.25;100152.94;4319845;33;20326;-85
2022/10/24 01:10:37;;;;;;;;;;;;;;;19.02;62.39;100147.78;3577978;33;10007619;-85
2022/10/24 01:13:06;;;;;;;;;;;;;;;18.98;62.62;100142.56;4312757;33;19992;-85
2022/10/24 01:15:52;;;;;;;;;;;;;;;18.91;62.56;100136.53;4325981;33;19980;-85
2022/10/24 01:18:22;;;;;;;;;;;;;;;18.84;62.84;100140.12;4319584;33;19989;-85
2022/10/24 01:20:55;;;;;;;;;;;;;;;19.04;62.15;100135.47;4312083;33;20009;-85
2022/10/24 01:23:44;;;;;;;;;;;;;;;18.96;62.43;100139.97;4311472;33;19984;-85
2022/10/24 01:26:11;;;;;;;;;;;;;;;19.05;62.08;100145.09;4315580;33;19991;-86
2022/10/24 01:28:59;;;;;;;;;;;;;;;18.87;62.64;100150.59;4314315;33;20004;-84
2022/10/24 01:31:33;;;;;;;;;;;;;;;18.89;62.56;100154.06;4311417;33;19988;-85
2022/10/24 01:34:03;;;;;;;;;;;;;;;18.82;62.71;100157.62;4318212;33;20031;-86
2022/10/24 01:36:37;;;;;;;;;;;;;;;18.88;62.44;100157.56;4322061;33;19988;-85
2022/10/24 01:39:06;;;;;;;;;;;;;;;18.79;62.68;100149.81;4309994;33;19988;-85
2022/10/24 01:41:33;;;;;;;;;;;;;;;19.09;61.59;100145.06;4311698;33;19984;-85
2022/10/24 01:44:06;;;;;;;;;;;;;;;18.78;62.47;100142.84;4312654;33;20466;-85
2022/10/24 01:46:34;;;;;;;;;;;;;;;18.84;62.46;100150.62;4303288;33;19972;-85
2022/10/24 01:49:03;;;;;;;;;;;;;;;18.87;62.40;100145.34;4296721;33;19999;-85
2022/10/24 01:51:30;;;;;;;;;;;;;;;18.86;62.47;100141.00;4295487;33;19977;-84
2022/10/24 01:53:56;;;;;;;;;;;;;;;18.91;62.16;100141.78;4300205;33;19995;-86
2022/10/24 01:56:26;;;;;;;;;;;;;;;18.97;61.78;100139.09;4300157;33;19973;-84
2022/10/24 01:59:02;;;;;;;;;;;;;;;18.91;62.07;100133.06;4294716;33;19989;-85
2022/10/24 02:01:29;;;;;;;;;;;;;;;18.87;62.02;100129.59;4297745;33;19993;-85
2022/10/24 02:03:57;;;;;;;;;;;;;;;18.89;62.02;100135.72;4301431;33;20314;-85
2022/10/24 02:06:26;;;;;;;;;;;;;;;18.93;61.66;100116.41;4295221;33;19972;-85
2022/10/24 02:08:57;;;;;;;;;;;;;;;18.81;62.13;100120.06;4298460;33;20018;-85
2022/10/24 02:11:24;;;;;;;;;;;;;;;18.77;62.41;100112.25;4304033;33;20000;-85
2022/10/24 02:13:53;;;;;;;;;;;;;;;18.93;61.72;100108.53;4292540;33;20024;-85
2022/10/24 02:16:20;;;;;;;;;;;;;;;18.88;61.83;100110.34;4281052;33;19985;-84
2022/10/24 02:18:48;;;;;;;;;;;;;;;18.94;61.61;100115.50;4268801;33;20023;-85
2022/10/24 02:21:24;;;;;;;;;;;;;;;18.93;61.50;100103.28;4286709;33;20011;-85
2022/10/24 02:23:55;;;;;;;;;;;;;;;18.87;61.62;100098.13;4316669;33;20443;-85
2022/10/24 02:26:42;;;;;;;;;;;;;;;18.67;62.38;100100.12;4327380;33;19979;-85
2022/10/24 02:29:11;;;;;;;;;;;;;;;18.76;62.01;100106.16;4334816;33;20407;-85
2022/10/24 02:31:38;;;;;;;;;;;;;;;18.48;62.99;100110.84;4323174;33;20000;-85
2022/10/24 02:34:06;;;;;;;;;;;;;;;18.58;62.75;100115.06;4322840;33;19995;-84
2022/10/24 02:36:33;;;;;;;;;;;;;;;18.76;62.01;100121.00;4323736;33;20019;-85
2022/10/24 02:39:00;;;;;;;;;;;;;;;18.78;61.91;100114.00;4331558;33;19987;-85
2022/10/24 02:41:28;;;;;;;;;;;;;;;18.67;62.16;100100.12;4337433;33;20011;-85
2022/10/24 02:43:55;;;;;;;;;;;;;;;18.70;62.17;100098.34;4331880;33;20428;-85
2022/10/24 02:46:21;;;;;;;;;;;;;;;18.66;62.21;100106.25;4329110;33;20038;-85
2022/10/24 02:48:49;;;;;;;;;;;;;;;18.77;61.85;100112.25;4332630;33;20007;-85
2022/10/24 02:51:17;;;;;;;;;;;;;;;18.70;62.06;100115.81;4325694;33;20003;-85
2022/10/24 02:53:43;;;;;;;;;;;;;;;18.72;61.99;100129.75;4327116;33;19992;-84
2022/10/24 02:56:10;;;;;;;;;;;;;;;18.61;62.47;100126.44;4332919;33;19987;-84
2022/10/24 02:58:37;;;;;;;;;;;;;;;18.77;61.70;100122.75;4330011;33;19991;-83
2022/10/24 03:01:04;;;;;;;;;;;;;;;18.64;62.22;100111.53;4333791;33;20476;-85
2022/10/24 03:03:30;;;;;;;;;;;;;;;18.75;61.82;100114.03;4325791;33;19983;-85
2022/10/24 03:05:57;;;;;;;;;;;;;;;18.58;62.31;100099.34;4326959;33;20315;-85
2022/10/24 03:08:24;;;;;;;;;;;;;;;18.73;61.79;100090.47;4328702;33;19994;-85
2022/10/24 03:10:51;;;;;;;;;;;;;;;18.71;61.78;100092.19;4313566;33;19988;-84
2022/10/24 03:13:18;;;;;;;;;;;;;;;18.77;61.70;100080.78;4278816;33;19988;-85
2022/10/24 03:15:44;;;;;;;;;;;;;;;18.81;61.47;100077.22;4287651;33;19985;-85
2022/10/24 03:18:16;;;;;;;;;;;;;;;18.73;61.76;100079.06;4297908;33;20386;-85
2022/10/24 03:20:43;;;;;;;;;;;;;;;18.80;61.35;100075.50;4302666;33;20006;-86
2022/10/24 03:23:09;;;;;;;;;;;;;;;18.73;61.61;100069.47;4307638;33;20006;-85
2022/10/24 03:25:36;;;;;;;;;;;;;;;18.59;61.99;100072.22;4306912;33;20011;-85
2022/10/24 03:28:03;;;;;;;;;;;;;;;18.40;62.82;100081.22;4303775;33;19984;-84
2022/10/24 03:30:30;;;;;;;;;;;;;;;18.38;62.74;100077.75;4299196;33;20412;-85
2022/10/24 03:32:56;;;;;;;;;;;;;;;18.48;62.56;100083.75;4297741;33;19999;-85
2022/10/24 03:35:23;;;;;;;;;;;;;;;18.46;62.51;100091.63;4297229;33;19999;-85
2022/10/24 03:37:50;;;;;;;;;;;;;;;18.54;62.35;100084.56;4306424;33;19975;-86
2022/10/24 03:40:17;;;;;;;;;;;;;;;18.50;62.45;100090.69;3696419;33;10010773;-85
2022/10/24 03:42:44;;;;;;;;;;;;;;;18.54;62.17;100084.56;4310423;33;19981;-85
2022/10/24 03:45:11;;;;;;;;;;;;;;;18.48;62.41;100084.63;4313812;33;20003;-84
2022/10/24 03:47:38;;;;;;;;;;;;;;;18.42;62.59;100084.69;4318038;33;19985;-85
2022/10/24 03:50:05;;;;;;;;;;;;;;;18.50;62.36;100088.06;4311506;33;20003;-85
2022/10/24 03:52:32;;;;;;;;;;;;;;;18.48;62.25;100089.88;4315635;33;19979;-85
2022/10/24 03:54:58;;;;;;;;;;;;;;;18.34;62.91;100091.75;4314946;33;19992;-84
2022/10/24 03:57:25;;;;;;;;;;;;;;;18.40;62.68;100091.69;4311898;33;19995;-84
2022/10/24 03:59:52;;;;;;;;;;;;;;;18.28;63.04;100108.44;4313891;33;19984;-84
2022/10/24 04:02:19;;;;;;;;;;;;;;;18.36;62.65;100095.25;4318871;33;19984;-85
2022/10/24 04:04:45;;;;;;;;;;;;;;;18.53;62.09;100103.75;4311783;33;19985;-85
2022/10/24 04:07:12;;;;;;;;;;;;;;;18.38;62.72;100109.22;4311962;33;19976;-85
2022/10/24 04:09:39;;;;;;;;;;;;;;;18.26;62.99;100111.97;4316220;33;19988;-85
2022/10/24 04:12:06;;;;;;;;;;;;;;;18.51;62.04;100110.81;4314673;33;20010;-85
2022/10/24 04:14:33;;;;;;;;;;;;;;;18.52;61.93;100111.66;4312024;33;20006;-85
2022/10/24 04:16:59;;;;;;;;;;;;;;;18.50;62.09;100108.19;4317583;33;19991;-85
2022/10/24 04:19:26;;;;;;;;;;;;;;;18.56;61.73;100103.72;4314800;33;20357;-85
2022/10/24 04:21:53;;;;;;;;;;;;;;;18.51;61.81;100095.06;4310007;33;19988;-85
2022/10/24 04:24:20;;;;;;;;;;;;;;;18.35;62.32;100088.28;4317779;33;20059;-85
2022/10/24 04:26:47;;;;;;;;;;;;;;;18.40;61.99;100091.69;4327771;33;19996;-86
2022/10/24 04:29:13;;;;;;;;;;;;;;;18.45;61.96;100084.66;4339821;33;20007;-85
2022/10/24 04:31:40;;;;;;;;;;;;;;;18.33;62.41;100095.28;4335351;33;20031;-85
2022/10/24 04:34:07;;;;;;;;;;;;;;;18.26;62.59;100093.63;4330531;33;19996;-86
2022/10/24 04:36:34;;;;;;;;;;;;;;;18.40;61.90;100094.31;4324369;33;19988;-86
2022/10/24 04:39:01;;;;;;;;;;;;;;;18.32;62.16;100093.56;4326847;33;20035;-85
2022/10/24 04:41:27;;;;;;;;;;;;;;;18.24;62.14;100090.16;4326391;33;19992;-85
2022/10/24 04:43:54;;;;;;;;;;;;;;;18.30;62.13;100090.94;4327591;33;20002;-86
2022/10/24 04:46:21;;;;;;;;;;;;;;;18.44;61.59;100082.03;4331459;33;19984;-87
2022/10/24 04:48:50;;;;;;;;;;;;;;;18.20;62.19;100078.84;4327464;33;20277;-86
2022/10/24 04:51:17;;;;;;;;;;;;;;;17.86;63.39;100073.06;4339614;33;19995;-86
2022/10/24 04:53:48;;;;;;;;;;;;;;;18.29;62.11;100063.00;4336795;33;19995;-87
2022/10/24 04:56:15;;;;;;;;;;;;;;;18.26;62.25;100064.81;4332640;33;19997;-86
2022/10/24 04:58:42;;;;;;;;;;;;;;;18.43;61.71;100070.69;4324800;33;19984;-87
2022/10/24 05:01:10;;;;;;;;;;;;;;;18.28;62.17;100068.25;4322583;33;19996;-87
2022/10/24 05:03:37;;;;;;;;;;;;;;;18.26;62.37;100072.66;4328901;33;20010;-85
2022/10/24 05:06:04;;;;;;;;;;;;;;;18.34;61.85;100068.19;4327978;33;20003;-86
2022/10/24 05:08:31;;;;;;;;;;;;;;;18.34;61.73;100070.81;4325619;33;19983;-87
2022/10/24 05:10:58;;;;;;;;;;;;;;;18.34;61.63;100087.38;4332800;33;20333;-85
2022/10/24 05:13:24;;;;;;;;;;;;;;;18.27;62.10;100105.84;4326017;33;20309;-87
2022/10/24 05:15:52;;;;;;;;;;;;;;;18.34;61.79;100103.12;4325498;33;20945;-86
2022/10/24 05:18:18;;;;;;;;;;;;;;;18.30;61.54;100103.19;4327683;33;20000;-84
2022/10/24 05:20:45;;;;;;;;;;;;;;;18.04;62.63;100104.31;4331787;33;19991;-83
2022/10/24 05:23:12;;;;;;;;;;;;;;;17.95;62.77;100114.87;4330710;33;19999;-79
2022/10/24 05:25:39;;;;;;;;;;;;;;;18.09;62.48;100113.03;4327647;33;19992;-82
2022/10/24 05:28:05;;;;;;;;;;;;;;;18.23;61.97;100125.97;4332837;33;19991;-82
2022/10/24 05:30:32;;;;;;;;;;;;;;;18.16;62.25;100119.06;4332516;33;19984;-81
2022/10/24 05:32:59;;;;;;;;;;;;;;;18.22;62.00;100123.34;4324063;33;19988;-81
2022/10/24 05:35:26;;;;;;;;;;;;;;;18.32;61.67;100119.75;4329072;33;19980;-84
2022/10/24 05:37:52;;;;;;;;;;;;;;;18.39;61.27;100121.44;4335169;33;20010;-83
2022/10/24 05:40:19;;;;;;;;;;;;;;;18.54;60.50;100116.00;4340098;33;20017;-81
2022/10/24 05:42:47;;;;;;;;;;;;;;;18.31;61.26;100118.00;4339273;33;19983;-83
2022/10/24 05:45:14;;;;;;;;;;;;;;;18.42;61.13;100131.87;4333535;33;19976;-82
2022/10/24 05:47:41;;;;;;;;;;;;;;;18.27;61.65;100137.28;4326381;33;20002;-84
2022/10/24 05:50:08;;;;;;;;;;;;;;;18.13;62.21;100140.91;4331556;33;19992;-85
2022/10/24 05:52:35;;;;;;;;;;;;;;;18.17;62.00;100151.38;4325396;33;19991;-81
2022/10/24 05:55:05;;;;;;;;;;;;;;;17.81;63.21;100153.44;4331437;33;19990;-82
2022/10/24 05:57:34;;;;;;;;;;;;;;;18.12;62.39;100160.16;4326001;33;19988;-83
2022/10/24 06:00:01;;;;;;;;;;;;;;;18.35;61.57;100156.44;4325940;33;20035;-82
2022/10/24 06:02:37;;;;;;;;;;;;;;;18.45;61.30;100158.06;4333410;33;19998;-83
2022/10/24 06:05:04;;;;;;;;;;;;;;;18.50;61.04;100150.13;4338152;33;19979;-84
2022/10/24 06:07:31;;;;;;;;;;;;;;;18.27;62.01;100158.25;4332830;33;19995;-84
2022/10/24 06:09:58;;;;;;;;;;;;;;;18.39;61.70;100147.62;4335226;33;20014;-82
2022/10/24 06:12:25;;;;;;;;;;;;;;;18.43;61.39;100144.09;4345089;32;19976;-84
2022/10/24 06:14:56;;;;;;;;;;;;;;;18.36;61.65;100138.03;4333558;33;19983;-84
2022/10/24 06:17:22;;;;;;;;;;;;;;;18.35;61.88;100130.22;4334429;33;20034;-83
2022/10/24 06:19:49;;;;;;;;;;;;;;;18.32;61.97;100136.34;4337086;33;19992;-83
2022/10/24 06:22:17;;;;;;;;;;;;;;;18.47;61.43;100140.53;4335895;33;20099;-86
2022/10/24 06:24:44;;;;;;;;;;;;;;;18.61;60.97;100127.28;4335838;33;19987;-84
2022/10/24 06:27:11;;;;;;;;;;;;;;;18.43;61.59;100130.97;4333374;33;20026;-83
2022/10/24 06:29:38;;;;;;;;;;;;;;;18.49;61.33;100123.03;4339900;33;19987;-83
2022/10/24 06:32:05;;;;;;;;;;;;;;;18.58;61.10;100127.31;4330197;33;20415;-84
2022/10/24 06:34:32;;;;;;;;;;;;;;;18.43;61.54;100123.13;4331258;33;19984;-85
2022/10/24 06:37:09;;;;;;;;;;;;;;;18.51;61.32;100125.66;4334959;33;19998;-83
2022/10/24 06:39:36;;;;;;;;;;;;;;;18.53;61.10;100122.13;4343722;32;20262;-85
2022/10/24 06:42:05;;;;;;;;;;;;;;;18.46;61.36;100128.31;4334227;33;20059;-82
2022/10/24 06:44:32;;;;;;;;;;;;;;;18.32;61.73;100127.63;4331937;33;19999;-81
2022/10/24 06:47:01;;;;;;;;;;;;;;;18.11;62.59;100113.84;4331312;33;19995;-85
2022/10/24 06:49:28;;;;;;;;;;;;;;;18.24;62.23;100111.09;4332427;33;19995;-84
2022/10/24 06:51:56;;;;;;;;;;;;;;;18.09;62.66;100115.63;4324781;33;20002;-84
2022/10/24 06:54:23;;;;;;;;;;;;;;;18.03;62.90;100123.56;4332555;33;20090;-83
2022/10/24 06:56:54;;;;;;;;;;;;;;;18.18;62.38;100126.88;4332422;33;20017;-83
2022/10/24 06:59:21;;;;;;;;;;;;;;;18.07;63.03;100120.00;4331655;33;19996;-82
2022/10/24 07:01:50;;;;;;;;;;;;;;;18.04;62.99;100130.53;4331207;33;19987;-85
2022/10/24 07:04:17;;;;;;;;;;;;;;;18.15;62.71;100129.53;4319787;33;20047;-82
2022/10/24 07:06:47;;;;;;;;;;;;;;;18.07;63.03;100130.50;4332744;33;20345;-85
2022/10/24 07:09:14;;;;;;;;;;;;;;;18.15;62.43;100142.63;4332976;33;20007;-82
2022/10/24 07:11:44;;;;;;;;;;;;;;;18.05;62.75;100147.97;4332107;33;20355;-81
2022/10/24 07:14:11;;;;;;;;;;;;;;;17.98;63.38;100162.00;4325231;33;19991;-81
2022/10/24 07:16:40;;;;;;;;;;;;;;;17.80;63.65;100173.50;4325722;33;20010;-81
2022/10/24 07:19:07;;;;;;;;;;;;;;;18.17;62.49;100174.94;4326413;32;20729;-83
2022/10/24 07:21:36;;;;;;;;;;;;;;;18.29;62.17;100166.97;4340030;32;20026;-82
2022/10/24 07:24:03;;;;;;;;;;;;;;;18.18;62.81;100174.06;4331561;33;19998;-84
2022/10/24 07:26:30;;;;;;;;;;;;;;;18.27;62.41;100169.59;4331209;33;19992;-83
2022/10/24 07:28:59;;;;;;;;;;;;;;;18.24;62.46;100168.75;4324553;33;19995;-85
2022/10/24 07:31:32;;;;;;;;;;;;;;;18.36;62.32;100173.88;4336987;33;20330;-83
2022/10/24 07:34:00;;;;;;;;;;;;;;;18.28;62.54;100159.97;4332679;33;19980;-82
2022/10/24 07:36:28;;;;;;;;;;;;;;;18.24;62.41;100160.91;4340046;33;20011;-84
2022/10/24 07:38:56;;;;;;;;;;;;;;;17.95;63.52;100162.03;4341519;33;20376;-83
2022/10/24 07:41:24;;;;;;;;;;;;;;;18.19;63.08;100165.31;4339877;33;19987;-84
2022/10/24 07:43:51;;;;;;;;;;;;;;;18.44;61.97;100166.81;4336481;33;20011;-84
2022/10/24 07:46:18;;;;;;;;;;;;;;;18.48;61.97;100168.50;4326875;33;19999;-84
2022/10/24 07:48:44;;;;;;;;;;;;;;;18.48;61.99;100173.75;4324086;33;19996;-83
2022/10/24 07:51:12;;;;;;;;;;;;;;;18.33;62.47;100185.25;4324858;33;20328;-82
2022/10/24 07:53:39;;;;;;;;;;;;;;;18.50;62.20;100184.22;4320306;33;19984;-83
2022/10/24 07:56:08;;;;;;;;;;;;;;;18.22;63.00;100186.22;4326518;33;20010;-84
2022/10/24 07:58:35;;;;;;;;;;;;;;;18.40;62.42;100186.06;4333012;33;20689;-84
2022/10/24 08:01:06;;;;;;;;;;;;;;;18.29;62.98;100182.69;4324785;33;20010;-84
2022/10/24 08:03:33;;;;;;;;;;;;;;;18.33;62.82;100181.78;4326587;33;19976;-83
2022/10/24 08:06:03;;;;;;;;;;;;;;;18.39;62.70;100186.94;4337596;32;20010;-82
2022/10/24 08:08:30;;;;;;;;;;;;;;;18.48;62.43;100188.63;4339645;33;19998;-82
2022/10/24 08:11:07;;;;;;;;;;;;;;;18.53;62.02;100186.78;4315814;33;20014;-80
2022/10/24 08:13:34;;;;;;;;;;;;;;;18.35;62.67;100172.16;4311068;33;20007;-83
2022/10/24 08:16:01;;;;;;;;;;;;;;;18.57;62.00;100172.78;4311773;33;20003;-82
2022/10/24 08:18:28;;;;;;;;;;;;;;;18.41;62.69;100165.94;4311385;33;19987;-82
2022/10/24 08:20:57;;;;;;;;;;;;;;;18.59;61.70;100166.63;4310826;33;20035;-81
2022/10/24 08:23:24;;;;;;;;;;;;;;;18.42;62.41;100162.47;4296764;33;19972;-83
2022/10/24 08:25:51;;;;;;;;;;;;;;;18.56;61.90;100160.53;4296653;33;19988;-82
2022/10/24 08:28:18;;;;;;;;;;;;;;;18.54;62.00;100163.19;4305881;33;20393;-84
2022/10/24 08:30:53;;;;;;;;;;;;;;;18.54;61.93;100168.44;4317956;33;19984;-82
2022/10/24 08:33:20;;;;;;;;;;;;;;;18.61;61.72;100157.88;4310166;33;19972;-82
2022/10/24 08:35:48;;;;;;;;;;;;;;;18.54;61.97;100168.44;4311250;33;20036;-82
2022/10/24 08:38:14;;;;;;;;;;;;;;;18.50;61.99;100166.72;4306760;33;19992;-82
2022/10/24 08:40:41;;;;;;;;;;;;;;;18.50;61.62;100156.22;4299958;33;19981;-83
2022/10/24 08:43:09;;;;;;;;;;;;;;;18.16;62.56;100154.88;4297091;33;20020;-83
2022/10/24 08:45:42;;;;;;;;;;;;;;;18.36;62.00;100158.16;4298480;33;19989;-83
2022/10/24 08:48:12;;;;;;;;;;;;;;;18.39;61.90;100141.53;4300654;33;19984;-82
2022/10/24 08:50:40;;;;;;;;;;;;;;;18.34;62.07;100138.94;4307455;33;19989;-84
2022/10/24 08:53:10;;;;;;;;;;;;;;;18.19;63.11;100141.72;4315406;33;19992;-84
2022/10/24 08:55:37;;;;;;;;;;;;;;;18.21;62.93;100145.19;4286392;33;20346;-83
2022/10/24 08:58:15;;;;;;;;;;;;;;;18.10;63.60;100140.09;4300441;33;19984;-84
2022/10/24 09:00:43;;;;;;;;;;;;;;;18.18;63.21;100147.84;4317714;33;20010;-82
2022/10/24 09:03:25;;;;;;;;;;;;;;;18.25;62.82;100144.28;4309767;33;19980;-82
2022/10/24 09:06:23;;;;;;;;;;;;;;;18.03;63.73;100148.87;4308357;33;20012;-83
2022/10/24 09:08:54;;;;;;;;;;;;;;;18.38;62.57;100145.91;4303049;33;19996;-83
2022/10/24 09:11:47;;;;;;;;;;;;;;;18.29;62.77;100143.38;4307121;33;19993;-84
2022/10/24 09:14:15;;;;;;;;;;;;;;;18.24;62.94;100145.16;4285956;33;19999;-81
2022/10/24 09:16:43;;;;;;;;;;;;;;;18.50;62.27;100139.63;4302788;33;20335;-82
2022/10/24 09:19:17;;;;;;;;;;;;;;;18.40;62.90;100136.25;4307181;33;20008;-83
2022/10/24 09:21:44;;;;;;;;;;;;;;;18.47;62.62;100140.53;4309681;33;19984;-82
2022/10/24 09:24:16;;;;;;;;;;;;;;;18.36;63.10;100143.28;4306023;33;19984;-84
2022/10/24 09:26:44;;;;;;;;;;;;;;;18.50;62.62;100144.88;4302079;33;20409;-83
2022/10/24 09:29:11;;;;;;;;;;;;;;;18.39;62.81;100150.25;4308797;33;19983;-83
2022/10/24 09:31:38;;;;;;;;;;;;;;;18.40;62.80;100154.59;4316767;33;19998;-81
2022/10/24 09:34:05;;;;;;;;;;;;;;;18.42;62.59;100154.59;4298023;33;20028;-82
2022/10/24 09:36:32;;;;;;;;;;;;;;;18.45;62.65;100163.28;4296238;33;20361;-83
2022/10/24 09:39:13;;;;;;;;;;;;;;;18.53;62.22;100169.31;4296037;33;19984;-84
2022/10/24 09:41:40;;;;;;;;;;;;;;;18.44;62.53;100176.41;4306896;33;19999;-85
2022/10/24 09:44:07;;;;;;;;;;;;;;;18.45;62.57;100179.03;4306844;33;19999;-83
2022/10/24 09:46:35;;;;;;;;;;;;;;;18.54;62.24;100184.19;4312825;33;20710;-84
2022/10/24 09:49:11;;;;;;;;;;;;;;;18.45;62.56;100188.66;4296186;33;20702;-84
2022/10/24 09:51:41;;;;;;;;;;;;;;;18.37;62.96;100186.09;4295911;33;20047;-85
2022/10/24 09:54:08;;;;;;;;;;;;;;;18.49;62.50;100179.84;4308455;33;19981;-82
2022/10/24 09:56:40;;;;;;;;;;;;;;;18.66;62.02;100172.66;4302052;33;19997;-81
2022/10/24 09:59:15;;;;;;;;;;;;;;;18.76;61.81;100168.19;4302394;33;20010;-81
2022/10/24 10:01:44;;;;;;;;;;;;;;;18.66;62.34;100174.41;4297296;33;20003;-82
2022/10/24 10:04:15;;;;;;;;;;;;;;;18.71;62.11;100175.25;4303874;33;20319;-82
2022/10/24 10:06:44;;;;;;;;;;;;;;;18.80;61.57;100164.69;4306857;33;20255;-82
2022/10/24 10:09:12;;;;;;;;;;;;;;;18.71;61.92;100159.50;4306377;33;20011;-81
2022/10/24 10:11:39;;;;;;;;;;;;;;;18.58;62.55;100164.91;4313009;33;20015;-82
2022/10/24 10:14:19;;;;;;;;;;;;;;;18.52;63.05;100164.97;4298460;33;19984;-82
2022/10/24 10:16:47;;;;;;;;;;;;;;;18.54;63.20;100163.19;4301059;33;20020;-83
2022/10/24 10:19:14;;;;;;;;;;;;;;;18.58;63.08;100159.66;4306569;33;19991;-81
2022/10/24 10:21:56;;;;;;;;;;;;;;;18.68;63.07;100159.53;4297809;33;20003;-82
2022/10/24 10:24:25;;;;;;;;;;;;;;;18.77;62.98;100151.59;4304956;33;20002;-81
2022/10/24 10:26:52;;;;;;;;;;;;;;;18.83;63.09;100148.91;4304474;33;19996;-82
2022/10/24 10:29:20;;;;;;;;;;;;;;;18.88;62.98;100146.22;4296226;33;19988;-83
2022/10/24 10:31:57;;;;;;;;;;;;;;;18.96;62.77;100145.22;4308513;33;19992;-83
2022/10/24 10:34:42;;;;;;;;;;;;;;;18.83;63.16;100143.66;4306814;33;19989;-84
2022/10/24 10:37:23;;;;;;;;;;;;;;;18.99;62.75;100158.31;4307095;33;20016;-82
2022/10/24 10:40:10;;;;;;;;;;;;;;;18.91;62.93;100152.28;4307834;33;19988;-83
2022/10/24 10:42:40;;;;;;;;;;;;;;;18.97;62.34;100146.94;4308536;33;19984;-84
2022/10/24 10:45:12;;;;;;;;;;;;;;;19.19;61.83;100144.03;4294106;33;20002;-83
2022/10/24 10:47:46;;;;;;;;;;;;;;;19.19;62.11;100125.66;4291463;33;20036;-84
2022/10/24 10:50:25;;;;;;;;;;;;;;;19.12;62.29;100134.53;4306716;33;19991;-86
2022/10/24 10:52:54;;;;;;;;;;;;;;;19.03;62.70;100128.50;4289861;33;20279;-84
2022/10/24 10:55:21;;;;;;;;;;;;;;;19.08;62.72;100117.06;4312567;33;19972;-82
2022/10/24 10:57:51;;;;;;;;;;;;;;;19.11;62.10;100117.03;4303564;33;20052;-85
2022/10/24 11:00:33;;;;;;;;;;;;;;;19.31;61.45;100124.63;4315015;33;19988;-82
2022/10/24 11:03:15;;;;;;;;;;;;;;;19.31;61.65;100120.25;4316417;33;20002;-81
2022/10/24 11:05:46;;;;;;;;;;;;;;;19.31;61.31;100120.25;4319167;33;19980;-80
2022/10/24 11:08:13;;;;;;;;;;;;;;;19.08;61.95;100122.31;4310934;33;19991;-79
2022/10/24 11:11:05;;;;;;;;;;;;;;;19.11;61.84;100122.28;4312593;33;19992;-84
2022/10/24 11:13:33;;;;;;;;;;;;;;;19.23;61.49;100122.09;4320030;33;19988;-81
2022/10/24 11:16:01;;;;;;;;;;;;;;;19.15;61.80;100119.59;4311681;33;19980;-82
2022/10/24 11:18:35;;;;;;;;;;;;;;;19.34;61.42;100114.09;4326418;33;20010;-82
2022/10/24 11:21:06;;;;;;;;;;;;;;;19.44;61.01;100121.78;4323303;33;20281;-82
2022/10/24 11:23:33;;;;;;;;;;;;;;;19.35;60.49;100121.94;4293075;33;802865;-83
2022/10/24 11:26:02;;;;;;;;;;;;;;;19.36;60.81;100128.91;4308985;33;19996;-82
2022/10/24 11:28:38;;;;;;;;;;;;;;;19.47;60.23;100132.25;4308828;33;20315;-83
2022/10/24 11:31:05;;;;;;;;;;;;;;;19.49;59.88;100125.19;4311180;33;19996;-83
2022/10/24 11:33:38;;;;;;;;;;;;;;;19.54;60.06;100117.25;4309078;33;20086;-79
2022/10/24 11:36:32;;;;;;;;;;;;;;;19.60;59.91;100116.28;4293933;33;19988;-83
2022/10/24 11:39:08;;;;;;;;;;;;;;;19.39;60.55;100120.12;4307955;33;19992;-84
2022/10/24 11:41:44;;;;;;;;;;;;;;;19.24;60.88;100123.81;4288784;33;19984;-85
2022/10/24 11:44:27;;;;;;;;;;;;;;;19.45;60.04;100113.00;4310929;33;20469;-85
2022/10/24 11:47:14;;;;;;;;;;;;;;;19.46;60.52;100116.50;4310705;33;20048;-84
2022/10/24 11:49:42;;;;;;;;;;;;;;;19.64;60.00;100112.75;4309096;33;20052;-82
2022/10/24 11:52:35;;;;;;;;;;;;;;;19.59;60.54;100114.53;4309866;33;20034;-83
2022/10/24 11:55:05;;;;;;;;;;;;;;;19.39;60.16;100112.25;4297883;33;20000;-83
2022/10/24 11:57:38;;;;;;;;;;;;;;;19.52;59.94;100104.13;4309372;33;20373;-81
2022/10/24 12:00:05;;;;;;;;;;;;;;;19.45;59.98;100102.50;4010090;33;10000212;-89
2022/10/24 12:02:37;;;;;;;;;;;;;;;19.72;59.17;100105.63;4299992;33;20030;-85
2022/10/24 12:05:36;;;;;;;;;;;;;;;19.24;60.21;100113.34;4310476;33;20007;-84
2022/10/24 12:08:17;;;;;;;;;;;;;;;19.63;59.59;100103.12;4294819;33;20036;-84
2022/10/24 12:11:04;;;;;;;;;;;;;;;19.46;60.25;100103.38;4320956;33;20330;-82
2022/10/24 12:13:41;;;;;;;;;;;;;;;19.52;60.09;100098.03;4310550;33;20019;-82
2022/10/24 12:16:22;;;;;;;;;;;;;;;19.54;60.06;100100.63;4308026;33;20010;-81
2022/10/24 12:18:51;;;;;;;;;;;;;;;19.24;60.37;100097.59;4307432;33;20006;-82
2022/10/24 12:21:24;;;;;;;;;;;;;;;19.48;59.98;100091.97;4305381;33;20000;-83
2022/10/24 12:23:56;;;;;;;;;;;;;;;19.55;59.80;100076.09;4310504;33;20059;-80
2022/10/24 12:26:27;;;;;;;;;;;;;;;19.54;60.05;100075.25;4300119;33;20007;-80
2022/10/24 12:28:58;;;;;;;;;;;;;;;19.55;59.31;100071.72;4299944;33;20150;-81
2022/10/24 12:31:29;;;;;;;;;;;;;;;19.31;59.76;100080.87;4303084;33;19980;-79
2022/10/24 12:34:14;;;;;;;;;;;;;;;19.28;59.82;100088.78;4309042;33;19992;-79
2022/10/24 12:37:00;;;;;;;;;;;;;;;19.45;59.60;100092.00;4310722;33;20004;-80
2022/10/24 12:39:27;;;;;;;;;;;;;;;19.21;60.31;100087.16;4306809;33;20735;-80
2022/10/24 12:41:55;;;;;;;;;;;;;;;19.49;59.79;100083.19;4310183;33;19995;-80
2022/10/24 12:44:23;;;;;;;;;;;;;;;19.58;59.69;100082.16;4310152;33;20001;-82
2022/10/24 12:46:50;;;;;;;;;;;;;;;19.68;59.38;100077.66;4308198;33;20350;-88
2022/10/24 12:49:18;;;;;;;;;;;;;;;19.74;59.01;100064.41;4313140;33;20001;-86